Time;durP1;ratioP1;P1;durP2;ratioP2;P2;SDS_P1;SDS_P2;PMS_P1;PMS_P2;Temp;Humidity;BMP_temperature;BMP_pressure;BME280_temperature;BME280_humidity;BME280_pressure;Samples;Min_cycle;Max_cycle;Signal;HPM_P1;HPM_P2
2021/05/29 00:01:23;;;;;;;3.43;2.60;;;;;;;;;;4993792;28;20206;-73
2021/05/29 00:04:27;;;;;;;3.43;2.50;;;;;;;;;;4993869;28;20217;-73
2021/05/29 00:07:32;;;;;;;2.93;2.43;;;;;;;;;;4994401;28;20182;-73
2021/05/29 00:10:40;;;;;;;2.50;2.30;;;;;;;;;;4994452;28;20178;-73
2021/05/29 00:13:44;;;;;;;4.20;2.60;;;;;;;;;;4994333;28;20221;-73
2021/05/29 00:16:49;;;;;;;4.20;2.63;;;;;;;;;;4993746;28;20216;-73
2021/05/29 00:19:54;;;;;;;4.30;3.00;;;;;;;;;;4994273;28;20185;-73
2021/05/29 00:22:58;;;;;;;3.97;2.87;;;;;;;;;;4994101;28;20223;-73
2021/05/29 00:26:02;;;;;;;4.43;2.70;;;;;;;;;;4994582;28;20178;-72
2021/05/29 00:29:06;;;;;;;3.17;2.87;;;;;;;;;;4994523;28;20178;-73
2021/05/29 00:32:11;;;;;;;4.03;2.70;;;;;;;;;;4994013;28;20201;-73
2021/05/29 00:35:15;;;;;;;3.57;2.73;;;;;;;;;;4994542;28;20182;-73
2021/05/29 00:38:19;;;;;;;3.73;2.70;;;;;;;;;;4994256;28;20182;-73
2021/05/29 00:41:24;;;;;;;3.00;2.57;;;;;;;;;;4994231;28;20202;-73
2021/05/29 00:44:44;;;;;;;3.17;2.87;;;;;;;;;;4994637;28;20202;-73
2021/05/29 00:47:49;;;;;;;3.50;3.00;;;;;;;;;;4993161;28;20193;-73
2021/05/29 00:50:59;;;;;;;3.23;2.90;;;;;;;;;;4993602;28;20174;-73
2021/05/29 00:54:05;;;;;;;3.70;3.40;;;;;;;;;;4993736;28;20213;-74
2021/05/29 00:57:11;;;;;;;3.30;2.90;;;;;;;;;;4994054;28;20186;-73
2021/05/29 01:00:18;;;;;;;4.03;3.07;;;;;;;;;;4994169;28;20186;-73
2021/05/29 01:03:23;;;;;;;4.47;3.67;;;;;;;;;;4993850;28;20217;-73
2021/05/29 01:06:27;;;;;;;3.60;3.30;;;;;;;;;;4993900;28;20621;-74
2021/05/29 01:09:31;;;;;;;3.87;2.97;;;;;;;;;;4993800;28;20202;-73
2021/05/29 01:12:36;;;;;;;6.83;3.40;;;;;;;;;;4993455;28;20577;-73
2021/05/29 01:15:42;;;;;;;3.40;3.10;;;;;;;;;;4992972;28;20553;-73
2021/05/29 01:18:47;;;;;;;3.33;3.03;;;;;;;;;;4992979;28;20183;-74
2021/05/29 01:21:51;;;;;;;3.37;2.90;;;;;;;;;;4992571;28;20209;-73
2021/05/29 01:24:55;;;;;;;4.70;3.03;;;;;;;;;;4992986;28;20637;-73
2021/05/29 01:28:02;;;;;;;4.27;2.90;;;;;;;;;;4993935;28;20182;-74
2021/05/29 01:31:08;;;;;;;3.87;2.93;;;;;;;;;;4992697;28;20202;-74
2021/05/29 01:34:14;;;;;;;4.33;3.03;;;;;;;;;;4993538;28;20693;-74
2021/05/29 01:37:18;;;;;;;3.70;3.30;;;;;;;;;;4993278;28;20198;-74
2021/05/29 01:40:22;;;;;;;3.47;2.97;;;;;;;;;;4993783;28;20179;-74
2021/05/29 01:43:26;;;;;;;3.97;3.53;;;;;;;;;;4993782;28;20221;-74
2021/05/29 01:46:30;;;;;;;4.30;3.00;;;;;;;;;;4993210;28;20182;-73
2021/05/29 01:49:35;;;;;;;3.53;3.10;;;;;;;;;;4993193;28;20202;-74
2021/05/29 01:53:02;;;;;;;3.17;2.87;;;;;;;;;;4993360;28;20210;-73
2021/05/29 01:56:07;;;;;;;3.50;3.20;;;;;;;;;;4981501;28;20191;-73
2021/05/29 01:59:11;;;;;;;3.40;3.10;;;;;;;;;;4994614;28;20174;-74
2021/05/29 02:02:16;;;;;;;4.80;3.00;;;;;;;;;;4996504;28;20202;-73
2021/05/29 02:05:22;;;;;;;7.80;3.07;;;;;;;;;;4996859;28;20182;-74
2021/05/29 02:08:26;;;;;;;11.83;4.73;;;;;;;;;;4995796;28;20183;-74
2021/05/29 02:11:30;;;;;;;10.53;4.63;;;;;;;;;;4995954;28;20178;-74
2021/05/29 02:14:35;;;;;;;3.40;3.10;;;;;;;;;;4996736;28;20186;-74
2021/05/29 02:17:43;;;;;;;3.83;3.13;;;;;;;;;;4995793;28;20179;-73
2021/05/29 02:20:58;;;;;;;3.97;3.53;;;;;;;;;;4996270;28;20526;-74
2021/05/29 02:24:03;;;;;;;4.07;3.67;;;;;;;;;;4984264;28;20221;-74
2021/05/29 02:27:07;;;;;;;4.20;3.80;;;;;;;;;;4996758;28;20190;-74
2021/05/29 02:30:12;;;;;;;6.23;3.77;;;;;;;;;;4996121;28;20542;-74
2021/05/29 02:33:17;;;;;;;3.97;3.57;;;;;;;;;;5063323;22;20228;-71
2021/05/29 02:36:21;;;;;;;4.07;3.40;;;;;;;;;;5034610;28;20196;-71
2021/05/29 02:39:25;;;;;;;5.10;3.63;;;;;;;;;;5035880;28;20177;-72
2021/05/29 02:42:30;;;;;;;3.67;3.30;;;;;;;;;;5035448;28;20225;-72
2021/05/29 02:45:34;;;;;;;4.23;3.47;;;;;;;;;;5023274;28;20566;-71
2021/05/29 02:48:39;;;;;;;3.80;3.50;;;;;;;;;;5022968;28;20201;-72
2021/05/29 02:51:43;;;;;;;4.63;3.73;;;;;;;;;;5035317;28;20201;-72
2021/05/29 02:54:47;;;;;;;4.13;3.50;;;;;;;;;;5035314;28;20177;-72
2021/05/29 02:57:56;;;;;;;4.37;3.60;;;;;;;;;;5023065;28;20176;-72
2021/05/29 03:01:00;;;;;;;4.00;3.60;;;;;;;;;;5022966;28;20547;-72
2021/05/29 03:04:04;;;;;;;4.77;3.57;;;;;;;;;;5012151;28;20223;-71
2021/05/29 03:07:08;;;;;;;4.33;3.63;;;;;;;;;;5035268;28;20181;-72
2021/05/29 03:10:14;;;;;;;4.43;3.97;;;;;;;;;;5034184;28;20204;-72
2021/05/29 03:13:19;;;;;;;3.93;3.53;;;;;;;;;;5022466;28;20220;-72
2021/05/29 03:16:23;;;;;;;7.10;3.83;;;;;;;;;;5033793;28;20568;-71
2021/05/29 03:19:27;;;;;;;4.20;3.80;;;;;;;;;;5035076;28;20532;-72
2021/05/29 03:22:32;;;;;;;4.93;4.23;;;;;;;;;;5022603;28;20216;-71
2021/05/29 03:25:36;;;;;;;5.33;3.93;;;;;;;;;;5022574;28;20635;-72
2021/05/29 03:28:40;;;;;;;4.63;3.83;;;;;;;;;;5034636;28;20635;-71
2021/05/29 03:31:44;;;;;;;9.13;4.20;;;;;;;;;;5034447;28;20201;-72
2021/05/29 03:34:48;;;;;;;5.23;4.07;;;;;;;;;;5022417;28;20188;-72
2021/05/29 03:37:52;;;;;;;5.43;3.90;;;;;;;;;;5034145;28;20189;-71
2021/05/29 03:40:57;;;;;;;4.03;3.63;;;;;;;;;;5034436;28;20185;-72
2021/05/29 03:44:01;;;;;;;7.23;4.07;;;;;;;;;;5022394;28;20675;-71
2021/05/29 03:47:05;;;;;;;4.90;4.13;;;;;;;;;;5033976;28;20201;-72
2021/05/29 03:50:11;;;;;;;4.70;4.10;;;;;;;;;;5022285;28;20177;-72
2021/05/29 03:53:15;;;;;;;8.87;3.93;;;;;;;;;;5021738;28;20208;-71
2021/05/29 03:56:19;;;;;;;5.33;3.70;;;;;;;;;;5034422;28;20177;-72
2021/05/29 03:59:23;;;;;;;4.23;3.60;;;;;;;;;;5034023;28;20201;-71
2021/05/29 04:02:27;;;;;;;5.53;3.87;;;;;;;;;;5020755;28;20694;-71
2021/05/29 04:05:31;;;;;;;6.90;4.00;;;;;;;;;;5054418;28;20184;-72
2021/05/29 04:08:35;;;;;;;5.07;3.83;;;;;;;;;;5041335;28;20188;-72
2021/05/29 04:11:40;;;;;;;6.40;4.03;;;;;;;;;;5041594;28;20180;-72
2021/05/29 04:14:44;;;;;;;4.63;4.07;;;;;;;;;;5041755;28;20180;-72
2021/05/29 04:17:48;;;;;;;4.10;3.70;;;;;;;;;;5053697;28;20193;-72
2021/05/29 04:20:52;;;;;;;3.90;3.20;;;;;;;;;;5053931;28;20176;-72
2021/05/29 04:23:56;;;;;;;4.37;3.93;;;;;;;;;;5053822;28;20200;-71
2021/05/29 04:27:00;;;;;;;4.93;3.80;;;;;;;;;;5041291;28;20183;-72
2021/05/29 04:30:08;;;;;;;6.97;4.53;;;;;;;;;;5053250;28;20180;-72
2021/05/29 04:33:13;;;;;;;6.10;4.20;;;;;;;;;;5053270;28;20584;-72
2021/05/29 04:36:17;;;;;;;5.70;4.17;;;;;;;;;;5041455;28;20184;-72
2021/05/29 04:39:21;;;;;;;6.67;3.90;;;;;;;;;;5053142;28;20180;-72
2021/05/29 04:42:26;;;;;;;6.27;3.97;;;;;;;;;;5052951;28;20224;-72
2021/05/29 04:45:30;;;;;;;4.57;4.17;;;;;;;;;;5053126;28;20184;-72
2021/05/29 04:48:34;;;;;;;5.07;4.10;;;;;;;;;;5041038;28;20203;-72
2021/05/29 04:51:38;;;;;;;5.30;3.30;;;;;;;;;;5052931;28;20196;-72
2021/05/29 04:54:42;;;;;;;3.73;3.40;;;;;;;;;;5053192;28;20200;-73
2021/05/29 04:57:47;;;;;;;3.17;2.87;;;;;;;;;;5040650;28;20191;-72
2021/05/29 05:00:51;;;;;;;3.73;3.37;;;;;;;;;;5041177;28;20183;-72
2021/05/29 05:03:55;;;;;;;3.43;3.13;;;;;;;;;;5040743;28;20687;-72
2021/05/29 05:07:00;;;;;;;6.20;3.43;;;;;;;;;;5053066;28;20188;-72
2021/05/29 05:10:05;;;;;;;3.87;2.90;;;;;;;;;;5052830;28;20184;-72
2021/05/29 05:13:10;;;;;;;4.03;3.20;;;;;;;;;;5040919;28;20208;-72
2021/05/29 05:16:15;;;;;;;3.53;2.80;;;;;;;;;;5040906;28;20180;-72
2021/05/29 05:19:20;;;;;;;4.40;3.30;;;;;;;;;;5052998;28;20504;-72
2021/05/29 05:22:24;;;;;;;7.03;6.03;;;;;;;;;;5040477;28;20567;-72
2021/05/29 05:25:28;;;;;;;4.63;4.23;;;;;;;;;;5052941;28;20184;-72
2021/05/29 05:28:32;;;;;;;5.90;3.50;;;;;;;;;;5040579;28;20176;-72
2021/05/29 05:31:37;;;;;;;5.37;3.80;;;;;;;;;;5040519;28;20199;-72
2021/05/29 05:34:41;;;;;;;4.10;3.50;;;;;;;;;;5042691;28;20180;-72
2021/05/29 05:37:45;;;;;;;3.93;3.30;;;;;;;;;;5044095;28;20658;-72
2021/05/29 05:40:52;;;;;;;8.70;3.27;;;;;;;;;;5056696;28;20180;-72
2021/05/29 05:43:56;;;;;;;4.37;3.43;;;;;;;;;;5044267;28;20219;-72
2021/05/29 05:47:00;;;;;;;5.17;3.13;;;;;;;;;;5044004;28;20185;-72
2021/05/29 05:50:08;;;;;;;4.80;3.20;;;;;;;;;;5044741;28;20180;-73
2021/05/29 05:53:12;;;;;;;7.60;3.97;;;;;;;;;;5044060;28;20556;-72
2021/05/29 05:56:25;;;;;;;6.13;3.40;;;;;;;;;;5056622;28;20176;-72
2021/05/29 05:59:29;;;;;;;5.67;2.97;;;;;;;;;;5043765;28;20196;-72
2021/05/29 06:02:34;;;;;;;3.67;3.30;;;;;;;;;;5044308;28;20224;-72
2021/05/29 06:05:38;;;;;;;4.13;2.73;;;;;;;;;;5043902;28;20207;-73
2021/05/29 06:08:42;;;;;;;4.73;3.13;;;;;;;;;;5055839;28;20200;-72
2021/05/29 06:11:46;;;;;;;5.27;3.03;;;;;;;;;;5043782;28;20508;-72
2021/05/29 06:18:39;;;;;;;4.93;2.50;;;;;;;;;;5056262;28;20184;-72
2021/05/29 06:21:45;;;;;;;3.93;3.10;;;;;;;;;;5056108;28;20176;-72
2021/05/29 06:24:49;;;;;;;4.90;3.13;;;;;;;;;;5043802;28;20168;-72
2021/05/29 06:27:53;;;;;;;6.17;3.13;;;;;;;;;;5043546;28;20654;-73
2021/05/29 06:30:57;;;;;;;3.40;3.10;;;;;;;;;;5043280;28;20188;-72
2021/05/29 06:34:02;;;;;;;3.47;3.00;;;;;;;;;;5043614;28;20203;-72
2021/05/29 06:37:07;;;;;;;7.93;2.87;;;;;;;;;;5043298;28;20176;-72
2021/05/29 06:40:11;;;;;;;4.27;2.47;;;;;;;;;;5056085;28;20180;-72
2021/05/29 06:43:17;;;;;;;5.17;3.80;;;;;;;;;;5055359;28;20701;-72
2021/05/29 06:46:21;;;;;;;5.67;3.00;;;;;;;;;;5054274;28;20184;-72
2021/05/29 06:49:25;;;;;;;5.00;3.10;;;;;;;;;;5055392;28;20633;-73
2021/05/29 06:52:31;;;;;;;4.37;2.73;;;;;;;;;;5042931;28;20212;-72
2021/05/29 06:58:58;;;;;;;5.83;2.67;;;;;;;;;;5042870;28;20189;-72
2021/05/29 07:02:04;;;;;;;3.63;2.43;;;;;;;;;;5031324;28;20180;-72
2021/05/29 07:05:11;;;;;;;3.77;2.50;;;;;;;;;;5055052;28;20173;-73
2021/05/29 07:08:15;;;;;;;4.57;3.20;;;;;;;;;;5054996;28;20527;-72
2021/05/29 07:11:20;;;;;;;3.93;2.80;;;;;;;;;;5043285;28;20619;-73
2021/05/29 07:14:24;;;;;;;4.43;2.40;;;;;;;;;;5054863;28;20698;-72
2021/05/29 07:17:33;;;;;;;7.40;2.70;;;;;;;;;;5053220;28;20184;-71
2021/05/29 07:20:39;;;;;;;3.93;2.50;;;;;;;;;;5038448;28;20176;-72
2021/05/29 07:23:44;;;;;;;3.30;2.30;;;;;;;;;;5050317;28;20224;-71
2021/05/29 07:26:49;;;;;;;2.97;2.40;;;;;;;;;;5050579;28;20643;-71
2021/05/29 07:29:53;;;;;;;4.37;2.60;;;;;;;;;;5038282;28;20184;-72
2021/05/29 07:32:58;;;;;;;2.87;2.17;;;;;;;;;;5050737;28;20559;-71
2021/05/29 07:36:02;;;;;;;6.77;2.50;;;;;;;;;;5050170;28;20180;-71
2021/05/29 07:39:07;;;;;;;6.77;2.20;;;;;;;;;;5050594;28;20176;-71
2021/05/29 07:42:11;;;;;;;2.90;2.03;;;;;;;;;;5037933;28;20185;-71
2021/05/29 07:45:16;;;;;;;3.80;2.30;;;;;;;;;;5050288;28;20180;-70
2021/05/29 07:48:20;;;;;;;4.93;1.93;;;;;;;;;;5037504;28;20639;-71
2021/05/29 07:51:24;;;;;;;2.60;1.60;;;;;;;;;;5050024;28;20192;-72
2021/05/29 07:54:31;;;;;;;5.47;1.67;;;;;;;;;;5037939;28;20224;-71
2021/05/29 07:57:35;;;;;;;2.63;2.30;;;;;;;;;;5049691;28;20184;-71
2021/05/29 08:00:39;;;;;;;2.23;1.70;;;;;;;;;;5037690;28;20180;-72
2021/05/29 08:03:44;;;;;;;2.30;2.00;;;;;;;;;;5049790;28;20220;-72
2021/05/29 08:06:48;;;;;;;5.40;2.40;;;;;;;;;;5026248;28;20200;-72
2021/05/29 08:09:55;;;;;;;4.95;2.30;;;;;;;;;;5049413;28;20696;-71
2021/05/29 08:12:59;;;;;;;2.40;1.93;;;;;;;;;;5037528;28;20250;-72
2021/05/29 08:16:04;;;;;;;3.70;2.30;;;;;;;;;;5049750;28;20196;-71
2021/05/29 08:19:11;;;;;;;2.83;1.60;;;;;;;;;;5026067;28;20674;-72
2021/05/29 08:22:15;;;;;;;2.20;1.63;;;;;;;;;;5037163;28;20176;-71
2021/05/29 08:25:20;;;;;;;2.33;1.57;;;;;;;;;;5037397;28;20181;-71
2021/05/29 08:28:24;;;;;;;2.77;1.33;;;;;;;;;;5049539;28;20189;-71
2021/05/29 08:31:28;;;;;;;7.43;1.60;;;;;;;;;;5049454;28;20201;-72
2021/05/29 08:34:32;;;;;;;3.10;1.40;;;;;;;;;;5037030;28;20194;-71
2021/05/29 08:37:37;;;;;;;5.40;1.50;;;;;;;;;;5037230;28;20593;-71
2021/05/29 08:40:41;;;;;;;2.37;1.40;;;;;;;;;;5037017;28;20188;-71
2021/05/29 08:43:46;;;;;;;1.30;1.10;;;;;;;;;;5049223;28;20231;-72
2021/05/29 08:46:50;;;;;;;1.83;1.20;;;;;;;;;;5049245;28;20183;-72
2021/05/29 08:49:54;;;;;;;2.13;1.50;;;;;;;;;;5037074;28;20176;-72
2021/05/29 08:52:58;;;;;;;2.27;1.27;;;;;;;;;;5037049;28;20220;-72
2021/05/29 08:56:03;;;;;;;2.20;1.13;;;;;;;;;;5049298;28;20177;-72
2021/05/29 08:59:07;;;;;;;2.23;1.30;;;;;;;;;;5025483;28;20210;-72
2021/05/29 09:02:12;;;;;;;1.80;1.23;;;;;;;;;;5049106;28;20180;-72
2021/05/29 09:05:16;;;;;;;2.07;1.10;;;;;;;;;;5049115;28;20535;-72
2021/05/29 09:08:23;;;;;;;2.83;1.15;;;;;;;;;;5049185;28;20196;-72
2021/05/29 09:12:02;;;;;;;4.40;1.40;;;;;;;;;;5052992;28;20188;-72
2021/05/29 09:15:07;;;;;;;1.60;1.00;;;;;;;;;;5076088;22;20703;-72
2021/05/29 09:18:30;;;;;;;4.90;1.48;;;;;;;;;;5037127;28;20201;-72
2021/05/29 09:21:35;;;;;;;3.25;1.30;;;;;;;;;;5059331;28;20671;-72
2021/05/29 09:24:39;;;;;;;1.67;1.00;;;;;;;;;;5056941;28;20206;-71
2021/05/29 09:27:54;;;;;;;1.15;1.05;;;;;;;;;;5056394;28;20180;-72
2021/05/29 09:31:00;;;;;;;1.48;0.95;;;;;;;;;;5057022;28;20187;-72
2021/05/29 09:34:05;;;;;;;1.40;1.10;;;;;;;;;;5056505;28;20217;-74
2021/05/29 09:37:36;;;;;;;1.80;0.80;;;;;;;;;;5056724;28;20180;-71
2021/05/29 09:40:51;;;;;;;3.85;1.00;;;;;;;;;;5036745;28;20189;-72
2021/05/29 09:43:59;;;;;;;2.40;1.00;;;;;;;;;;5036598;28;20227;-72
2021/05/29 09:47:08;;;;;;;1.80;1.30;;;;;;;;;;5036972;28;20183;-72
2021/05/29 09:50:12;;;;;;;2.07;1.03;;;;;;;;;;5036398;28;20180;-72
2021/05/29 09:53:35;;;;;;;2.30;1.08;;;;;;;;;;5036259;28;20217;-71
2021/05/29 09:56:42;;;;;;;4.15;1.30;;;;;;;;;;5036207;28;20183;-72
2021/05/29 10:00:13;;;;;;;6.00;1.15;;;;;;;;;;5036629;28;20179;-72
2021/05/29 10:03:17;;;;;;;2.58;0.90;;;;;;;;;;5036175;28;20213;-71
2021/05/29 10:06:22;;;;;;;1.42;1.20;;;;;;;;;;5036156;28;20190;-72
2021/05/29 10:09:27;;;;;;;2.05;1.40;;;;;;;;;;5046873;28;20184;-72
2021/05/29 10:12:32;;;;;;;10.00;1.27;;;;;;;;;;5036332;28;20569;-71
2021/05/29 10:15:38;;;;;;;3.35;1.23;;;;;;;;;;5034968;28;20556;-72
2021/05/29 10:18:47;;;;;;;1.10;0.90;;;;;;;;;;5035349;28;20186;-72
2021/05/29 10:21:52;;;;;;;2.03;1.20;;;;;;;;;;5035968;28;20187;-72
2021/05/29 10:24:57;;;;;;;1.67;1.00;;;;;;;;;;5036103;28;20207;-72
2021/05/29 10:28:02;;;;;;;2.25;1.00;;;;;;;;;;5036184;28;20185;-72
2021/05/29 10:31:07;;;;;;;1.05;0.90;;;;;;;;;;5035586;28;20203;-71
2021/05/29 10:34:12;;;;;;;1.00;0.90;;;;;;;;;;5035647;28;20221;-71
2021/05/29 10:37:26;;;;;;;1.70;1.00;;;;;;;;;;5035421;28;20203;-71
2021/05/29 10:40:34;;;;;;;2.88;1.00;;;;;;;;;;5035670;28;20184;-72
2021/05/29 10:43:38;;;;;;;2.45;1.00;;;;;;;;;;5035500;28;20223;-71
2021/05/29 10:47:07;;;;;;;1.00;0.90;;;;;;;;;;5035629;28;20178;-72
2021/05/29 10:50:11;;;;;;;0.60;0.60;;;;;;;;;;5035510;28;20186;-72
2021/05/29 10:53:53;;;;;;;9.20;1.40;;;;;;;;;;5035011;28;20218;-72
2021/05/29 10:56:57;;;;;;;2.97;1.00;;;;;;;;;;5035369;28;20181;-72
2021/05/29 11:00:02;;;;;;;1.10;0.80;;;;;;;;;;5046084;28;20185;-72
2021/05/29 11:03:26;;;;;;;2.30;0.90;;;;;;;;;;5035090;28;20208;-72
2021/05/29 11:06:32;;;;;;;1.47;0.90;;;;;;;;;;5035190;28;20181;-72
2021/05/29 11:09:56;;;;;;;1.33;1.00;;;;;;;;;;5034861;28;20192;-72
2021/05/29 11:13:02;;;;;;;1.83;1.07;;;;;;;;;;5034751;28;20216;-72
2021/05/29 11:16:06;;;;;;;1.80;0.70;;;;;;;;;;5034795;28;20200;-72
2021/05/29 11:19:12;;;;;;;2.40;1.10;;;;;;;;;;5048258;28;20200;-72
2021/05/29 11:22:19;;;;;;;1.00;0.80;;;;;;;;;;5054645;28;20180;-72
2021/05/29 11:25:24;;;;;;;1.93;0.90;;;;;;;;;;5053665;28;20203;-72
2021/05/29 11:28:29;;;;;;;2.47;0.87;;;;;;;;;;5014755;28;20525;-72
2021/05/29 11:31:43;;;;;;;2.07;0.80;;;;;;;;;;5050254;28;20200;-72
2021/05/29 11:34:47;;;;;;;3.93;1.10;;;;;;;;;;5054620;28;20180;-72
2021/05/29 11:38:07;;;;;;;0.77;0.70;;;;;;;;;;5054419;28;20635;-72
2021/05/29 11:41:17;;;;;;;0.90;0.73;;;;;;;;;;5054547;28;20177;-72
2021/05/29 11:44:23;;;;;;;3.73;0.90;;;;;;;;;;5055376;28;20227;-72
2021/05/29 11:47:27;;;;;;;1.20;0.80;;;;;;;;;;5054189;28;20185;-72
2021/05/29 11:50:32;;;;;;;0.80;0.80;;;;;;;;;;5054293;28;20516;-72
2021/05/29 11:53:38;;;;;;;1.67;0.70;;;;;;;;;;5054155;28;20211;-72
2021/05/29 11:56:45;;;;;;;0.90;0.70;;;;;;;;;;5054118;28;20188;-72
2021/05/29 11:59:49;;;;;;;1.57;0.80;;;;;;;;;;5053328;28;20512;-72
2021/05/29 12:02:53;;;;;;;1.23;0.80;;;;;;;;;;5014089;28;20711;-72
2021/05/29 12:05:57;;;;;;;1.93;0.73;;;;;;;;;;5014327;28;20206;-72
2021/05/29 12:09:08;;;;;;;1.90;0.80;;;;;;;;;;5010430;28;20186;-72
2021/05/29 12:12:15;;;;;;;1.73;1.20;;;;;;;;;;5010174;28;20205;-72
2021/05/29 12:15:21;;;;;;;3.33;1.30;;;;;;;;;;5010252;28;20543;-73
2021/05/29 12:18:46;;;;;;;1.63;1.07;;;;;;;;;;5009288;28;20190;-73
2021/05/29 12:21:53;;;;;;;4.17;1.00;;;;;;;;;;5009922;28;20185;-73
2021/05/29 12:25:10;;;;;;;1.07;0.90;;;;;;;;;;5010143;28;20210;-73
2021/05/29 12:28:15;;;;;;;1.27;0.80;;;;;;;;;;5010151;28;20517;-73
2021/05/29 12:31:22;;;;;;;0.70;0.70;;;;;;;;;;5010115;28;20182;-72
2021/05/29 12:34:29;;;;;;;6.47;1.10;;;;;;;;;;5009867;28;20209;-73
2021/05/29 12:37:34;;;;;;;3.17;0.97;;;;;;;;;;5010100;28;20197;-72
2021/05/29 12:40:52;;;;;;;1.03;0.77;;;;;;;;;;5009866;28;20197;-72
2021/05/29 12:44:04;;;;;;;1.07;0.70;;;;;;;;;;5021219;28;20221;-72
2021/05/29 12:47:20;;;;;;;3.97;0.90;;;;;;;;;;5013484;28;20193;-72
2021/05/29 12:50:38;;;;;;;4.13;0.90;;;;;;;;;;5013984;28;20522;-72
2021/05/29 12:53:51;;;;;;;1.27;0.77;;;;;;;;;;5013392;28;20213;-71
2021/05/29 12:56:57;;;;;;;2.67;0.60;;;;;;;;;;5013963;28;20179;-71
2021/05/29 13:00:37;;;;;;;1.53;0.90;;;;;;;;;;5013545;28;20201;-72
2021/05/29 13:07:29;;;;;;;1.30;0.70;;;;;;;;;;5013250;28;20189;-73
2021/05/29 13:10:40;;;;;;;1.20;0.70;;;;;;;;;;5013008;28;20187;-73
2021/05/29 13:14:01;;;;;;;2.50;0.70;;;;;;;;;;5013247;28;20220;-72
2021/05/29 13:17:06;;;;;;;4.97;1.30;;;;;;;;;;5013192;28;20516;-72
2021/05/29 13:20:21;;;;;;;0.60;0.60;;;;;;;;;;5013381;28;20199;-72
2021/05/29 13:23:25;;;;;;;1.50;0.80;;;;;;;;;;5013332;28;20228;-72
2021/05/29 13:26:29;;;;;;;0.80;0.70;;;;;;;;;;5017048;28;20215;-72
2021/05/29 13:29:35;;;;;;;1.50;0.80;;;;;;;;;;5032822;28;20189;-72
2021/05/29 13:32:40;;;;;;;2.10;0.70;;;;;;;;;;5031219;28;20209;-72
2021/05/29 13:35:46;;;;;;;1.33;0.80;;;;;;;;;;5023795;28;20176;-72
2021/05/29 13:38:50;;;;;;;2.13;0.90;;;;;;;;;;5013209;28;20174;-72
2021/05/29 13:41:55;;;;;;;4.90;0.90;;;;;;;;;;5022917;28;20185;-72
2021/05/29 13:44:59;;;;;;;2.17;1.00;;;;;;;;;;5012779;28;20213;-72
2021/05/29 13:48:04;;;;;;;1.67;0.80;;;;;;;;;;5023887;28;20190;-72
2021/05/29 13:51:08;;;;;;;1.37;0.80;;;;;;;;;;5013296;28;20193;-73
2021/05/29 13:54:13;;;;;;;2.30;0.83;;;;;;;;;;5015369;28;20224;-73
2021/05/29 13:56:51;;;;;;;2.13;1.20;;;;;;;;;;5116710;27;20848;-73
2021/05/29 13:59:55;;;;;;;1.80;1.07;;;;;;;;;;5132555;28;20185;-73
2021/05/29 14:03:01;;;;;;;1.20;0.80;;;;;;;;;;5096479;28;20222;-72
2021/05/29 14:06:06;;;;;;;1.33;0.97;;;;;;;;;;5090743;28;20171;-73
2021/05/29 14:09:10;;;;;;;7.20;1.10;;;;;;;;;;5097057;28;20194;-72
2021/05/29 14:12:15;;;;;;;1.57;0.83;;;;;;;;;;5110712;28;20185;-72
2021/05/29 14:15:19;;;;;;;3.60;2.80;;;;;;;;;;5093019;28;20575;-72
2021/05/29 14:18:23;;;;;;;5.73;1.00;;;;;;;;;;5094688;28;20187;-71
2021/05/29 14:21:28;;;;;;;4.57;0.90;;;;;;;;;;5090859;28;20183;-72
2021/05/29 14:24:33;;;;;;;2.73;0.90;;;;;;;;;;5109792;28;20194;-72
2021/05/29 14:27:39;;;;;;;30.37;2.83;;;;;;;;;;5099136;28;20203;-73
2021/05/29 14:30:43;;;;;;;5.33;0.97;;;;;;;;;;5091836;28;20194;-71
2021/05/29 14:33:47;;;;;;;2.30;1.30;;;;;;;;;;5093406;28;20210;-71
2021/05/29 14:36:51;;;;;;;1.60;1.17;;;;;;;;;;5100047;28;20210;-71
2021/05/29 14:39:56;;;;;;;0.70;0.70;;;;;;;;;;5091209;28;20186;-72
2021/05/29 14:43:00;;;;;;;4.80;0.90;;;;;;;;;;5104321;28;20699;-71
2021/05/29 14:46:05;;;;;;;1.50;0.97;;;;;;;;;;5104287;28;20186;-71
2021/05/29 14:49:10;;;;;;;1.50;0.70;;;;;;;;;;5101503;28;20649;-71
2021/05/29 14:52:14;;;;;;;0.97;0.70;;;;;;;;;;5095954;28;20194;-71
2021/05/29 14:55:18;;;;;;;1.73;0.70;;;;;;;;;;5102402;28;20213;-71
2021/05/29 14:58:24;;;;;;;1.67;1.10;;;;;;;;;;5105374;28;20529;-71
2021/05/29 15:01:29;;;;;;;8.17;1.10;;;;;;;;;;5092395;28;20182;-71
2021/05/29 15:04:40;;;;;;;1.10;0.70;;;;;;;;;;5097553;28;20178;-71
2021/05/29 15:07:44;;;;;;;1.20;0.63;;;;;;;;;;5082965;28;20183;-71
2021/05/29 15:10:49;;;;;;;1.80;0.90;;;;;;;;;;5076099;28;20180;-72
2021/05/29 15:13:53;;;;;;;1.33;0.63;;;;;;;;;;5076100;28;20222;-71
2021/05/29 15:16:58;;;;;;;1.67;0.80;;;;;;;;;;5094146;22;20227;-73
2021/05/29 15:20:02;;;;;;;1.27;0.70;;;;;;;;;;5045627;28;20538;-74
2021/05/29 15:23:07;;;;;;;3.57;1.07;;;;;;;;;;5074526;28;20211;-74
2021/05/29 15:26:12;;;;;;;0.93;0.60;;;;;;;;;;5073326;28;20195;-73
2021/05/29 15:29:16;;;;;;;3.83;0.70;;;;;;;;;;5075236;28;20569;-74
2021/05/29 15:32:20;;;;;;;3.37;1.07;;;;;;;;;;5074912;28;20195;-74
2021/05/29 15:35:25;;;;;;;4.20;1.00;;;;;;;;;;5074946;28;20218;-74
2021/05/29 15:38:28;;;;;;;4.90;1.77;;;;;;;;;;5067260;28;20203;-74
2021/05/29 15:41:34;;;;;;;1.47;0.80;;;;;;;;;;5063237;28;20179;-75
2021/05/29 15:44:38;;;;;;;0.70;0.70;;;;;;;;;;5062981;28;20195;-74
2021/05/29 15:47:42;;;;;;;1.33;0.50;;;;;;;;;;5075762;28;20176;-75
2021/05/29 15:51:03;;;;;;;2.60;0.60;;;;;;;;;;5063034;28;20179;-75
2021/05/29 15:54:07;;;;;;;1.27;0.80;;;;;;;;;;5042574;28;20690;-74
2021/05/29 15:57:12;;;;;;;4.13;0.87;;;;;;;;;;5072080;28;20209;-74
2021/05/29 16:00:17;;;;;;;0.90;0.80;;;;;;;;;;5074483;28;20191;-73
2021/05/29 16:03:22;;;;;;;2.40;1.00;;;;;;;;;;5061931;28;20567;-73
2021/05/29 16:06:27;;;;;;;6.60;1.20;;;;;;;;;;5050456;28;20183;-74
2021/05/29 16:09:31;;;;;;;1.20;0.43;;;;;;;;;;5074744;28;20184;-74
2021/05/29 16:12:37;;;;;;;2.00;0.70;;;;;;;;;;5067995;28;20214;-73
2021/05/29 16:15:41;;;;;;;2.10;0.57;;;;;;;;;;5074026;28;20207;-73
2021/05/29 16:18:45;;;;;;;0.67;0.63;;;;;;;;;;5073845;28;20179;-74
2021/05/29 16:21:50;;;;;;;3.67;0.63;;;;;;;;;;5074346;28;20646;-74
2021/05/29 16:24:54;;;;;;;1.20;0.63;;;;;;;;;;5075086;28;20187;-73
2021/05/29 16:27:58;;;;;;;2.53;0.50;;;;;;;;;;5062075;28;20551;-73
2021/05/29 16:31:08;;;;;;;0.63;0.50;;;;;;;;;;5091845;28;20568;-74
2021/05/29 16:34:13;;;;;;;2.53;1.67;;;;;;;;;;5073949;28;20219;-73
2021/05/29 16:37:17;;;;;;;14.10;2.07;;;;;;;;;;5046057;28;20199;-73
2021/05/29 16:40:25;;;;;;;3.73;1.10;;;;;;;;;;5073651;28;20192;-73
2021/05/29 16:43:29;;;;;;;1.03;0.90;;;;;;;;;;5061804;28;20211;-74
2021/05/29 16:46:33;;;;;;;1.20;0.90;;;;;;;;;;5061296;28;20183;-73
2021/05/29 16:49:38;;;;;;;2.20;2.00;;;;;;;;;;5073778;28;20523;-73
2021/05/29 16:52:42;;;;;;;1.30;1.20;;;;;;;;;;5062391;28;20219;-73
2021/05/29 16:55:46;;;;;;;4.77;1.20;;;;;;;;;;5073015;28;20199;-73
2021/05/29 16:58:51;;;;;;;1.50;1.40;;;;;;;;;;5054061;28;20520;-74
2021/05/29 17:01:56;;;;;;;1.83;0.90;;;;;;;;;;5055314;28;20191;-73
2021/05/29 17:05:00;;;;;;;1.53;0.87;;;;;;;;;;5060967;28;20670;-74
2021/05/29 17:08:04;;;;;;;3.23;0.97;;;;;;;;;;5073292;28;20191;-73
2021/05/29 17:11:11;;;;;;;2.90;0.80;;;;;;;;;;5073540;28;20199;-74
2021/05/29 17:14:18;;;;;;;0.80;0.73;;;;;;;;;;5061031;28;20219;-74
2021/05/29 17:17:22;;;;;;;1.00;0.80;;;;;;;;;;5042602;28;20215;-73
2021/05/29 17:20:26;;;;;;;1.37;0.93;;;;;;;;;;5055760;28;20187;-73
2021/05/29 17:23:31;;;;;;;1.00;0.80;;;;;;;;;;5073119;28;20223;-74
2021/05/29 17:26:36;;;;;;;1.87;0.70;;;;;;;;;;5072310;28;20184;-73
2021/05/29 17:29:40;;;;;;;1.33;0.83;;;;;;;;;;5060238;28;20196;-74
2021/05/29 17:32:44;;;;;;;0.70;0.70;;;;;;;;;;5072929;28;20238;-74
2021/05/29 17:35:48;;;;;;;1.57;0.60;;;;;;;;;;5073097;28;20221;-73
2021/05/29 17:38:53;;;;;;;2.60;0.80;;;;;;;;;;5072687;28;20191;-73
2021/05/29 17:41:57;;;;;;;0.80;0.80;;;;;;;;;;5073068;28;20187;-74
2021/05/29 17:45:01;;;;;;;0.90;0.70;;;;;;;;;;5060638;28;20179;-74
2021/05/29 17:48:07;;;;;;;1.70;0.83;;;;;;;;;;5072696;28;20199;-74
2021/05/29 17:51:11;;;;;;;1.63;0.93;;;;;;;;;;5073284;28;20183;-73
2021/05/29 17:54:16;;;;;;;0.87;0.80;;;;;;;;;;5060699;28;20211;-74
2021/05/29 17:57:21;;;;;;;1.10;0.70;;;;;;;;;;5072475;28;20666;-73
2021/05/29 18:00:27;;;;;;;1.90;0.90;;;;;;;;;;5042527;28;20652;-73
2021/05/29 18:03:31;;;;;;;1.40;0.70;;;;;;;;;;5072358;28;20218;-73
2021/05/29 18:06:37;;;;;;;2.40;0.90;;;;;;;;;;5060324;28;20195;-75
2021/05/29 18:09:41;;;;;;;1.13;0.70;;;;;;;;;;5072594;28;20183;-73
2021/05/29 18:12:46;;;;;;;0.80;0.80;;;;;;;;;;5072605;28;20211;-74
2021/05/29 18:15:50;;;;;;;2.97;0.87;;;;;;;;;;5037699;28;20527;-74
2021/05/29 18:18:55;;;;;;;5.03;1.00;;;;;;;;;;5060734;28;20195;-73
2021/05/29 18:21:59;;;;;;;0.87;0.70;;;;;;;;;;5072865;28;20180;-74
2021/05/29 18:25:04;;;;;;;0.90;0.77;;;;;;;;;;5052866;28;20180;-74
2021/05/29 18:28:08;;;;;;;1.23;0.70;;;;;;;;;;5053467;28;20176;-73
2021/05/29 18:31:13;;;;;;;1.40;0.90;;;;;;;;;;5072291;28;20191;-73
2021/05/29 18:34:17;;;;;;;1.20;1.00;;;;;;;;;;5072751;28;20215;-74
2021/05/29 18:40:29;;;;;;;7.40;5.20;;;;;;;;;;5052793;28;20180;-74
2021/05/29 18:43:33;;;;;;;12.80;7.07;;;;;;;;;;5062580;28;20215;-73
2021/05/29 18:46:38;;;;;;;12.87;7.27;;;;;;;;;;5059030;28;20183;-73
2021/05/29 18:49:42;;;;;;;8.07;4.80;;;;;;;;;;5063847;28;20195;-73